Terminal Aerodrome Forecast
Issued by NWS

Home | Current Version | Previous Version | Graphics & Text | Print | Product List | Glossary On
Versions: 1 2 3 4 5 6 7 8 9 10 11 12 13 14 15 16 17 18
804
FTUS43 KBIS 170530
TAFMOT
TAF
KMOT 170530Z 1706/1806 16003KT P6SM SCT150
     FM171600 19005KT P6SM FEW200
     FM172200 21011KT P6SM VCTS SCT090CB SCT200=

USA.gov is the U.S. government's official web portal to all federal, state and local government web resources and services.